sensor_id;sensor_type;location;lat;lon;timestamp;P1;durP1;ratioP1;P2;durP2;ratioP2
6300;SDS011;3183;51.010;6.898;2022-07-04T00:01:50;3.90;;;1.30;;
6300;SDS011;3183;51.010;6.898;2022-07-04T00:04:18;6.30;;;1.40;;
6300;SDS011;3183;51.010;6.898;2022-07-04T00:06:45;7.03;;;1.90;;
6300;SDS011;3183;51.010;6.898;2022-07-04T00:09:12;6.33;;;1.63;;
6300;SDS011;3183;51.010;6.898;2022-07-04T00:11:40;3.67;;;1.40;;
6300;SDS011;3183;51.010;6.898;2022-07-04T00:14:07;1.57;;;1.40;;
6300;SDS011;3183;51.010;6.898;2022-07-04T00:16:34;3.17;;;1.70;;
6300;SDS011;3183;51.010;6.898;2022-07-04T00:19:01;9.90;;;1.53;;
6300;SDS011;3183;51.010;6.898;2022-07-04T00:21:30;2.57;;;1.80;;
6300;SDS011;3183;51.010;6.898;2022-07-04T00:23:57;10.90;;;2.93;;
6300;SDS011;3183;51.010;6.898;2022-07-04T00:26:24;1.60;;;1.17;;
6300;SDS011;3183;51.010;6.898;2022-07-04T00:28:51;2.23;;;1.53;;
6300;SDS011;3183;51.010;6.898;2022-07-04T00:31:18;3.03;;;1.27;;
6300;SDS011;3183;51.010;6.898;2022-07-04T00:33:45;5.30;;;2.20;;
6300;SDS011;3183;51.010;6.898;2022-07-04T00:36:13;5.60;;;1.53;;
6300;SDS011;3183;51.010;6.898;2022-07-04T00:38:41;3.93;;;1.30;;
6300;SDS011;3183;51.010;6.898;2022-07-04T00:41:08;8.63;;;1.50;;
6300;SDS011;3183;51.010;6.898;2022-07-04T00:43:35;1.80;;;1.30;;
6300;SDS011;3183;51.010;6.898;2022-07-04T00:46:03;7.67;;;1.83;;
6300;SDS011;3183;51.010;6.898;2022-07-04T00:48:31;4.53;;;1.43;;
6300;SDS011;3183;51.010;6.898;2022-07-04T00:50:58;7.17;;;1.97;;
6300;SDS011;3183;51.010;6.898;2022-07-04T00:53:25;4.77;;;2.10;;
6300;SDS011;3183;51.010;6.898;2022-07-04T00:55:54;3.20;;;1.80;;
6300;SDS011;3183;51.010;6.898;2022-07-04T00:58:21;2.27;;;1.90;;
6300;SDS011;3183;51.010;6.898;2022-07-04T01:00:49;1.83;;;1.63;;
6300;SDS011;3183;51.010;6.898;2022-07-04T01:03:16;2.30;;;1.70;;
6300;SDS011;3183;51.010;6.898;2022-07-04T01:05:44;6.30;;;1.77;;
6300;SDS011;3183;51.010;6.898;2022-07-04T01:08:11;8.63;;;2.23;;
6300;SDS011;3183;51.010;6.898;2022-07-04T01:10:39;3.10;;;1.80;;
6300;SDS011;3183;51.010;6.898;2022-07-04T01:13:07;2.53;;;1.90;;
6300;SDS011;3183;51.010;6.898;2022-07-04T01:15:35;4.83;;;1.93;;
6300;SDS011;3183;51.010;6.898;2022-07-04T01:18:02;4.03;;;1.70;;
6300;SDS011;3183;51.010;6.898;2022-07-04T01:20:34;5.20;;;2.17;;
6300;SDS011;3183;51.010;6.898;2022-07-04T01:23:02;3.17;;;2.03;;
6300;SDS011;3183;51.010;6.898;2022-07-04T01:25:29;3.73;;;1.80;;
6300;SDS011;3183;51.010;6.898;2022-07-04T01:27:57;3.87;;;1.87;;
6300;SDS011;3183;51.010;6.898;2022-07-04T01:30:24;3.40;;;1.47;;
6300;SDS011;3183;51.010;6.898;2022-07-04T01:32:51;4.57;;;2.10;;
6300;SDS011;3183;51.010;6.898;2022-07-04T01:35:19;5.10;;;1.90;;
6300;SDS011;3183;51.010;6.898;2022-07-04T01:37:47;4.93;;;2.00;;
6300;SDS011;3183;51.010;6.898;2022-07-04T01:40:15;8.40;;;2.33;;
6300;SDS011;3183;51.010;6.898;2022-07-04T01:42:42;6.00;;;1.80;;
6300;SDS011;3183;51.010;6.898;2022-07-04T01:45:09;2.83;;;2.17;;
6300;SDS011;3183;51.010;6.898;2022-07-04T01:47:37;2.30;;;1.80;;
6300;SDS011;3183;51.010;6.898;2022-07-04T01:50:05;2.80;;;2.23;;
6300;SDS011;3183;51.010;6.898;2022-07-04T01:52:32;5.07;;;2.20;;
6300;SDS011;3183;51.010;6.898;2022-07-04T01:55:01;3.23;;;1.83;;
6300;SDS011;3183;51.010;6.898;2022-07-04T01:57:28;4.13;;;2.20;;
6300;SDS011;3183;51.010;6.898;2022-07-04T01:59:55;4.20;;;2.20;;
6300;SDS011;3183;51.010;6.898;2022-07-04T02:02:40;3.33;;;2.07;;
6300;SDS011;3183;51.010;6.898;2022-07-04T02:05:07;1.90;;;1.73;;
6300;SDS011;3183;51.010;6.898;2022-07-04T02:07:34;2.80;;;1.70;;
6300;SDS011;3183;51.010;6.898;2022-07-04T02:10:03;5.83;;;1.90;;
6300;SDS011;3183;51.010;6.898;2022-07-04T02:12:30;2.90;;;2.27;;
6300;SDS011;3183;51.010;6.898;2022-07-04T02:15:21;8.70;;;2.10;;
6300;SDS011;3183;51.010;6.898;2022-07-04T02:17:48;4.77;;;2.13;;
6300;SDS011;3183;51.010;6.898;2022-07-04T02:20:15;2.43;;;1.70;;
6300;SDS011;3183;51.010;6.898;2022-07-04T02:22:42;3.13;;;2.13;;
6300;SDS011;3183;51.010;6.898;2022-07-04T02:25:11;2.07;;;1.90;;
6300;SDS011;3183;51.010;6.898;2022-07-04T02:27:38;3.20;;;2.17;;
6300;SDS011;3183;51.010;6.898;2022-07-04T02:30:06;2.17;;;1.87;;
6300;SDS011;3183;51.010;6.898;2022-07-04T02:32:34;2.27;;;1.90;;
6300;SDS011;3183;51.010;6.898;2022-07-04T02:35:01;5.10;;;1.73;;
6300;SDS011;3183;51.010;6.898;2022-07-04T02:37:28;2.43;;;1.87;;
6300;SDS011;3183;51.010;6.898;2022-07-04T02:39:55;1.50;;;1.40;;
6300;SDS011;3183;51.010;6.898;2022-07-04T02:42:24;2.83;;;1.93;;
6300;SDS011;3183;51.010;6.898;2022-07-04T02:44:55;2.73;;;2.10;;
6300;SDS011;3183;51.010;6.898;2022-07-04T02:47:22;3.87;;;1.90;;
6300;SDS011;3183;51.010;6.898;2022-07-04T02:49:49;6.63;;;1.90;;
6300;SDS011;3183;51.010;6.898;2022-07-04T02:52:16;2.60;;;2.33;;
6300;SDS011;3183;51.010;6.898;2022-07-04T02:54:43;5.73;;;1.70;;
6300;SDS011;3183;51.010;6.898;2022-07-04T02:57:11;2.27;;;1.77;;
6300;SDS011;3183;51.010;6.898;2022-07-04T02:59:40;2.50;;;1.90;;
6300;SDS011;3183;51.010;6.898;2022-07-04T03:02:07;2.60;;;2.00;;
6300;SDS011;3183;51.010;6.898;2022-07-04T03:04:34;4.47;;;2.20;;
6300;SDS011;3183;51.010;6.898;2022-07-04T03:07:04;1.83;;;1.73;;
6300;SDS011;3183;51.010;6.898;2022-07-04T03:09:32;4.30;;;2.40;;
6300;SDS011;3183;51.010;6.898;2022-07-04T03:11:59;4.47;;;2.27;;
6300;SDS011;3183;51.010;6.898;2022-07-04T03:14:26;4.43;;;2.50;;
6300;SDS011;3183;51.010;6.898;2022-07-04T03:16:54;5.00;;;2.47;;
6300;SDS011;3183;51.010;6.898;2022-07-04T03:19:21;2.03;;;1.70;;
6300;SDS011;3183;51.010;6.898;2022-07-04T03:21:49;5.83;;;1.93;;
6300;SDS011;3183;51.010;6.898;2022-07-04T03:24:16;5.00;;;2.00;;
6300;SDS011;3183;51.010;6.898;2022-07-04T03:26:43;3.43;;;1.83;;
6300;SDS011;3183;51.010;6.898;2022-07-04T03:29:10;7.73;;;2.60;;
6300;SDS011;3183;51.010;6.898;2022-07-04T03:31:37;6.23;;;2.37;;
6300;SDS011;3183;51.010;6.898;2022-07-04T03:34:06;2.80;;;1.70;;
6300;SDS011;3183;51.010;6.898;2022-07-04T03:36:33;15.53;;;2.00;;
6300;SDS011;3183;51.010;6.898;2022-07-04T03:39:00;6.23;;;2.70;;
6300;SDS011;3183;51.010;6.898;2022-07-04T03:41:27;1.93;;;1.50;;
6300;SDS011;3183;51.010;6.898;2022-07-04T03:43:54;3.53;;;2.00;;
6300;SDS011;3183;51.010;6.898;2022-07-04T03:46:22;3.53;;;2.17;;
6300;SDS011;3183;51.010;6.898;2022-07-04T03:48:49;5.10;;;2.30;;
6300;SDS011;3183;51.010;6.898;2022-07-04T03:51:17;1.60;;;1.50;;
6300;SDS011;3183;51.010;6.898;2022-07-04T03:53:45;5.03;;;1.83;;
6300;SDS011;3183;51.010;6.898;2022-07-04T03:56:12;3.90;;;2.17;;
6300;SDS011;3183;51.010;6.898;2022-07-04T03:58:39;7.70;;;1.90;;
6300;SDS011;3183;51.010;6.898;2022-07-04T04:01:07;3.90;;;1.70;;
6300;SDS011;3183;51.010;6.898;2022-07-04T04:03:34;6.17;;;1.63;;
6300;SDS011;3183;51.010;6.898;2022-07-04T04:06:20;3.33;;;1.60;;
6300;SDS011;3183;51.010;6.898;2022-07-04T04:08:48;4.93;;;1.70;;
6300;SDS011;3183;51.010;6.898;2022-07-04T04:11:15;4.20;;;2.63;;
6300;SDS011;3183;51.010;6.898;2022-07-04T04:13:42;11.53;;;2.40;;
6300;SDS011;3183;51.010;6.898;2022-07-04T04:16:09;6.40;;;1.70;;
6300;SDS011;3183;51.010;6.898;2022-07-04T04:18:37;5.60;;;1.90;;
6300;SDS011;3183;51.010;6.898;2022-07-04T04:21:04;8.33;;;2.10;;
6300;SDS011;3183;51.010;6.898;2022-07-04T04:23:32;6.40;;;1.93;;
6300;SDS011;3183;51.010;6.898;2022-07-04T04:25:59;6.33;;;1.70;;
6300;SDS011;3183;51.010;6.898;2022-07-04T04:28:27;3.67;;;2.07;;
6300;SDS011;3183;51.010;6.898;2022-07-04T04:30:54;9.40;;;1.87;;
6300;SDS011;3183;51.010;6.898;2022-07-04T04:33:21;5.00;;;2.10;;
6300;SDS011;3183;51.010;6.898;2022-07-04T04:35:48;4.50;;;2.17;;
6300;SDS011;3183;51.010;6.898;2022-07-04T04:38:15;4.00;;;1.87;;
6300;SDS011;3183;51.010;6.898;2022-07-04T04:40:44;3.20;;;2.10;;
6300;SDS011;3183;51.010;6.898;2022-07-04T04:43:11;6.40;;;2.20;;
6300;SDS011;3183;51.010;6.898;2022-07-04T04:45:38;5.67;;;2.00;;
6300;SDS011;3183;51.010;6.898;2022-07-04T04:48:06;10.47;;;2.77;;
6300;SDS011;3183;51.010;6.898;2022-07-04T04:50:33;8.27;;;2.57;;
6300;SDS011;3183;51.010;6.898;2022-07-04T04:53:00;3.30;;;2.10;;
6300;SDS011;3183;51.010;6.898;2022-07-04T04:55:27;3.53;;;1.80;;
6300;SDS011;3183;51.010;6.898;2022-07-04T04:57:56;9.23;;;1.90;;
6300;SDS011;3183;51.010;6.898;2022-07-04T05:00:23;4.50;;;2.07;;
6300;SDS011;3183;51.010;6.898;2022-07-04T05:02:50;4.03;;;1.93;;
6300;SDS011;3183;51.010;6.898;2022-07-04T05:05:17;3.80;;;1.80;;
6300;SDS011;3183;51.010;6.898;2022-07-04T05:07:44;5.67;;;2.00;;
6300;SDS011;3183;51.010;6.898;2022-07-04T05:10:11;6.43;;;2.13;;
6300;SDS011;3183;51.010;6.898;2022-07-04T05:12:40;6.30;;;2.63;;
6300;SDS011;3183;51.010;6.898;2022-07-04T05:15:10;4.87;;;2.17;;
6300;SDS011;3183;51.010;6.898;2022-07-04T05:17:37;7.60;;;2.50;;
6300;SDS011;3183;51.010;6.898;2022-07-04T05:20:04;2.63;;;2.40;;
6300;SDS011;3183;51.010;6.898;2022-07-04T05:22:33;8.37;;;2.43;;
6300;SDS011;3183;51.010;6.898;2022-07-04T05:25:00;3.77;;;2.50;;
6300;SDS011;3183;51.010;6.898;2022-07-04T05:27:27;4.87;;;2.50;;
6300;SDS011;3183;51.010;6.898;2022-07-04T05:29:56;6.00;;;2.23;;
6300;SDS011;3183;51.010;6.898;2022-07-04T05:32:24;4.47;;;1.97;;
6300;SDS011;3183;51.010;6.898;2022-07-04T05:34:51;7.57;;;1.93;;
6300;SDS011;3183;51.010;6.898;2022-07-04T05:37:19;14.40;;;2.47;;
6300;SDS011;3183;51.010;6.898;2022-07-04T05:39:46;7.33;;;2.00;;
6300;SDS011;3183;51.010;6.898;2022-07-04T05:42:14;6.87;;;2.27;;
6300;SDS011;3183;51.010;6.898;2022-07-04T05:44:41;5.23;;;2.00;;
6300;SDS011;3183;51.010;6.898;2022-07-04T05:47:08;8.80;;;1.60;;
6300;SDS011;3183;51.010;6.898;2022-07-04T05:49:37;3.60;;;1.50;;
6300;SDS011;3183;51.010;6.898;2022-07-04T05:52:04;6.77;;;1.97;;
6300;SDS011;3183;51.010;6.898;2022-07-04T05:54:31;3.60;;;1.70;;
6300;SDS011;3183;51.010;6.898;2022-07-04T05:56:59;8.10;;;2.30;;
6300;SDS011;3183;51.010;6.898;2022-07-04T05:59:26;7.33;;;1.83;;
6300;SDS011;3183;51.010;6.898;2022-07-04T06:01:54;13.33;;;2.40;;
6300;SDS011;3183;51.010;6.898;2022-07-04T06:04:21;3.63;;;1.47;;
6300;SDS011;3183;51.010;6.898;2022-07-04T06:06:50;5.10;;;1.90;;
6300;SDS011;3183;51.010;6.898;2022-07-04T06:09:17;3.83;;;1.90;;
6300;SDS011;3183;51.010;6.898;2022-07-04T06:11:44;4.63;;;1.70;;
6300;SDS011;3183;51.010;6.898;2022-07-04T06:14:12;1.97;;;1.63;;
6300;SDS011;3183;51.010;6.898;2022-07-04T06:16:39;5.93;;;1.77;;
6300;SDS011;3183;51.010;6.898;2022-07-04T06:19:06;7.33;;;2.17;;
6300;SDS011;3183;51.010;6.898;2022-07-04T06:21:33;12.43;;;2.40;;
6300;SDS011;3183;51.010;6.898;2022-07-04T06:24:02;4.20;;;2.20;;
6300;SDS011;3183;51.010;6.898;2022-07-04T06:26:29;4.57;;;2.47;;
6300;SDS011;3183;51.010;6.898;2022-07-04T06:28:56;4.60;;;1.83;;
6300;SDS011;3183;51.010;6.898;2022-07-04T06:31:24;6.70;;;1.90;;
6300;SDS011;3183;51.010;6.898;2022-07-04T06:33:51;7.67;;;2.07;;
6300;SDS011;3183;51.010;6.898;2022-07-04T06:36:35;13.03;;;1.73;;
6300;SDS011;3183;51.010;6.898;2022-07-04T06:39:04;4.40;;;2.00;;
6300;SDS011;3183;51.010;6.898;2022-07-04T06:41:31;3.07;;;1.53;;
6300;SDS011;3183;51.010;6.898;2022-07-04T06:43:58;5.80;;;1.67;;
6300;SDS011;3183;51.010;6.898;2022-07-04T06:46:25;7.50;;;2.10;;
6300;SDS011;3183;51.010;6.898;2022-07-04T06:48:53;6.67;;;1.77;;
6300;SDS011;3183;51.010;6.898;2022-07-04T06:51:20;5.47;;;1.63;;
6300;SDS011;3183;51.010;6.898;2022-07-04T06:53:47;3.57;;;1.50;;
6300;SDS011;3183;51.010;6.898;2022-07-04T06:56:15;3.13;;;1.47;;
6300;SDS011;3183;51.010;6.898;2022-07-04T06:58:43;7.30;;;1.50;;
6300;SDS011;3183;51.010;6.898;2022-07-04T07:01:10;6.40;;;1.20;;
6300;SDS011;3183;51.010;6.898;2022-07-04T07:03:37;2.77;;;1.30;;
6300;SDS011;3183;51.010;6.898;2022-07-04T07:06:04;4.60;;;1.70;;
6300;SDS011;3183;51.010;6.898;2022-07-04T07:08:32;10.23;;;1.57;;
6300;SDS011;3183;51.010;6.898;2022-07-04T07:10:59;3.33;;;0.97;;
6300;SDS011;3183;51.010;6.898;2022-07-04T07:13:38;2.77;;;1.40;;
6300;SDS011;3183;51.010;6.898;2022-07-04T07:16:06;2.50;;;1.00;;
6300;SDS011;3183;51.010;6.898;2022-07-04T07:18:33;3.47;;;1.07;;
6300;SDS011;3183;51.010;6.898;2022-07-04T07:21:00;3.37;;;1.23;;
6300;SDS011;3183;51.010;6.898;2022-07-04T07:23:27;0.97;;;0.70;;
6300;SDS011;3183;51.010;6.898;2022-07-04T07:25:54;5.10;;;0.90;;
6300;SDS011;3183;51.010;6.898;2022-07-04T07:28:22;2.80;;;0.80;;
6300;SDS011;3183;51.010;6.898;2022-07-04T07:30:50;3.40;;;0.93;;
6300;SDS011;3183;51.010;6.898;2022-07-04T07:33:17;3.60;;;1.00;;
6300;SDS011;3183;51.010;6.898;2022-07-04T07:35:44;5.27;;;1.20;;
6300;SDS011;3183;51.010;6.898;2022-07-04T07:38:12;6.73;;;1.07;;
6300;SDS011;3183;51.010;6.898;2022-07-04T07:40:39;1.20;;;0.90;;
6300;SDS011;3183;51.010;6.898;2022-07-04T07:43:06;1.60;;;0.70;;
6300;SDS011;3183;51.010;6.898;2022-07-04T07:45:33;1.63;;;1.00;;
6300;SDS011;3183;51.010;6.898;2022-07-04T07:48:02;2.43;;;0.90;;
6300;SDS011;3183;51.010;6.898;2022-07-04T07:50:29;1.47;;;0.60;;
6300;SDS011;3183;51.010;6.898;2022-07-04T07:52:57;1.67;;;0.77;;
6300;SDS011;3183;51.010;6.898;2022-07-04T07:55:24;2.97;;;1.07;;
6300;SDS011;3183;51.010;6.898;2022-07-04T07:57:51;1.53;;;0.70;;
6300;SDS011;3183;51.010;6.898;2022-07-04T08:00:19;8.40;;;0.97;;
6300;SDS011;3183;51.010;6.898;2022-07-04T08:02:46;2.00;;;1.00;;
6300;SDS011;3183;51.010;6.898;2022-07-04T08:05:32;1.97;;;0.80;;
6300;SDS011;3183;51.010;6.898;2022-07-04T08:07:59;3.17;;;0.80;;
6300;SDS011;3183;51.010;6.898;2022-07-04T08:10:27;3.20;;;0.80;;
6300;SDS011;3183;51.010;6.898;2022-07-04T08:12:54;2.33;;;0.73;;
6300;SDS011;3183;51.010;6.898;2022-07-04T08:15:23;8.20;;;0.90;;
6300;SDS011;3183;51.010;6.898;2022-07-04T08:17:51;4.40;;;0.70;;
6300;SDS011;3183;51.010;6.898;2022-07-04T08:20:18;4.80;;;1.17;;
6300;SDS011;3183;51.010;6.898;2022-07-04T08:22:47;1.63;;;0.93;;
6300;SDS011;3183;51.010;6.898;2022-07-04T08:25:14;1.57;;;0.90;;
6300;SDS011;3183;51.010;6.898;2022-07-04T08:27:42;1.47;;;0.70;;
6300;SDS011;3183;51.010;6.898;2022-07-04T08:30:09;2.03;;;0.70;;
6300;SDS011;3183;51.010;6.898;2022-07-04T08:32:36;1.13;;;0.60;;
6300;SDS011;3183;51.010;6.898;2022-07-04T08:35:03;1.27;;;0.73;;
6300;SDS011;3183;51.010;6.898;2022-07-04T08:37:31;3.50;;;1.10;;
6300;SDS011;3183;51.010;6.898;2022-07-04T08:39:59;1.37;;;0.70;;
6300;SDS011;3183;51.010;6.898;2022-07-04T08:42:32;2.13;;;0.80;;
6300;SDS011;3183;51.010;6.898;2022-07-04T08:45:02;3.80;;;1.00;;
6300;SDS011;3183;51.010;6.898;2022-07-04T08:47:31;2.87;;;1.00;;
6300;SDS011;3183;51.010;6.898;2022-07-04T08:50:01;8.03;;;0.97;;
6300;SDS011;3183;51.010;6.898;2022-07-04T08:52:36;2.50;;;0.67;;
6300;SDS011;3183;51.010;6.898;2022-07-04T08:55:06;4.13;;;1.00;;
6300;SDS011;3183;51.010;6.898;2022-07-04T08:57:51;2.83;;;1.20;;
6300;SDS011;3183;51.010;6.898;2022-07-04T09:00:36;2.10;;;0.87;;
6300;SDS011;3183;51.010;6.898;2022-07-04T09:03:03;2.20;;;0.73;;
6300;SDS011;3183;51.010;6.898;2022-07-04T09:05:31;3.17;;;1.13;;
6300;SDS011;3183;51.010;6.898;2022-07-04T09:07:58;2.33;;;0.83;;
6300;SDS011;3183;51.010;6.898;2022-07-04T09:10:27;1.00;;;0.80;;
6300;SDS011;3183;51.010;6.898;2022-07-04T09:12:54;2.80;;;0.90;;
6300;SDS011;3183;51.010;6.898;2022-07-04T09:15:21;5.87;;;1.00;;
6300;SDS011;3183;51.010;6.898;2022-07-04T09:17:49;3.27;;;0.90;;
6300;SDS011;3183;51.010;6.898;2022-07-04T09:20:17;4.33;;;0.97;;
6300;SDS011;3183;51.010;6.898;2022-07-04T09:22:45;1.67;;;0.83;;
6300;SDS011;3183;51.010;6.898;2022-07-04T09:25:12;2.80;;;1.20;;
6300;SDS011;3183;51.010;6.898;2022-07-04T09:27:42;1.53;;;0.97;;
6300;SDS011;3183;51.010;6.898;2022-07-04T09:30:10;6.50;;;0.90;;
6300;SDS011;3183;51.010;6.898;2022-07-04T09:32:39;3.80;;;1.10;;
6300;SDS011;3183;51.010;6.898;2022-07-04T09:35:07;3.30;;;1.60;;
6300;SDS011;3183;51.010;6.898;2022-07-04T09:37:34;2.20;;;1.00;;
6300;SDS011;3183;51.010;6.898;2022-07-04T09:40:03;2.33;;;0.97;;
6300;SDS011;3183;51.010;6.898;2022-07-04T09:42:37;4.13;;;1.03;;
6300;SDS011;3183;51.010;6.898;2022-07-04T09:45:06;1.40;;;0.87;;
6300;SDS011;3183;51.010;6.898;2022-07-04T09:47:34;3.13;;;1.10;;
6300;SDS011;3183;51.010;6.898;2022-07-04T09:50:02;2.40;;;1.20;;
6300;SDS011;3183;51.010;6.898;2022-07-04T09:52:31;7.27;;;3.87;;
6300;SDS011;3183;51.010;6.898;2022-07-04T09:54:58;3.33;;;1.30;;
6300;SDS011;3183;51.010;6.898;2022-07-04T09:57:28;3.90;;;1.13;;
6300;SDS011;3183;51.010;6.898;2022-07-04T09:59:57;2.80;;;1.03;;
6300;SDS011;3183;51.010;6.898;2022-07-04T10:02:43;3.67;;;1.10;;
6300;SDS011;3183;51.010;6.898;2022-07-04T10:05:10;1.97;;;1.00;;
6300;SDS011;3183;51.010;6.898;2022-07-04T10:07:38;1.83;;;0.93;;
6300;SDS011;3183;51.010;6.898;2022-07-04T10:13:05;2.37;;;1.40;;
6300;SDS011;3183;51.010;6.898;2022-07-04T10:15:33;4.07;;;1.10;;
6300;SDS011;3183;51.010;6.898;2022-07-04T10:18:04;5.43;;;1.20;;
6300;SDS011;3183;51.010;6.898;2022-07-04T10:20:31;2.30;;;1.37;;
6300;SDS011;3183;51.010;6.898;2022-07-04T10:22:58;1.80;;;1.03;;
6300;SDS011;3183;51.010;6.898;2022-07-04T10:25:26;2.90;;;1.10;;
6300;SDS011;3183;51.010;6.898;2022-07-04T10:27:54;7.47;;;1.70;;
6300;SDS011;3183;51.010;6.898;2022-07-04T10:30:22;4.07;;;1.20;;
6300;SDS011;3183;51.010;6.898;2022-07-04T10:32:49;2.20;;;1.70;;
6300;SDS011;3183;51.010;6.898;2022-07-04T10:35:19;4.63;;;1.40;;
6300;SDS011;3183;51.010;6.898;2022-07-04T10:38:06;4.87;;;1.57;;
6300;SDS011;3183;51.010;6.898;2022-07-04T10:40:40;3.77;;;1.47;;
6300;SDS011;3183;51.010;6.898;2022-07-04T10:45:52;6.83;;;1.47;;
6300;SDS011;3183;51.010;6.898;2022-07-04T10:48:20;6.20;;;0.93;;
6300;SDS011;3183;51.010;6.898;2022-07-04T10:50:57;3.83;;;1.30;;
6300;SDS011;3183;51.010;6.898;2022-07-04T10:53:26;1.23;;;1.10;;
6300;SDS011;3183;51.010;6.898;2022-07-04T10:55:53;3.00;;;1.13;;
6300;SDS011;3183;51.010;6.898;2022-07-04T11:01:11;3.80;;;1.53;;
6300;SDS011;3183;51.010;6.898;2022-07-04T11:03:43;2.00;;;1.30;;
6300;SDS011;3183;51.010;6.898;2022-07-04T11:11:50;1.90;;;1.30;;
6300;SDS011;3183;51.010;6.898;2022-07-04T11:14:30;1.23;;;1.00;;
6300;SDS011;3183;51.010;6.898;2022-07-04T11:16:57;2.70;;;1.00;;
6300;SDS011;3183;51.010;6.898;2022-07-04T11:19:24;5.50;;;1.30;;
6300;SDS011;3183;51.010;6.898;2022-07-04T11:21:53;3.50;;;1.23;;
6300;SDS011;3183;51.010;6.898;2022-07-04T11:24:20;1.80;;;1.40;;
6300;SDS011;3183;51.010;6.898;2022-07-04T11:26:47;3.97;;;1.20;;
6300;SDS011;3183;51.010;6.898;2022-07-04T11:29:16;3.83;;;1.43;;
6300;SDS011;3183;51.010;6.898;2022-07-04T11:31:44;4.10;;;1.30;;
6300;SDS011;3183;51.010;6.898;2022-07-04T11:34:11;6.60;;;1.13;;
6300;SDS011;3183;51.010;6.898;2022-07-04T11:36:39;2.63;;;1.07;;
6300;SDS011;3183;51.010;6.898;2022-07-04T11:39:07;3.50;;;1.50;;
6300;SDS011;3183;51.010;6.898;2022-07-04T11:41:35;2.70;;;1.17;;
6300;SDS011;3183;51.010;6.898;2022-07-04T11:44:22;5.20;;;1.20;;
6300;SDS011;3183;51.010;6.898;2022-07-04T11:47:08;2.40;;;1.17;;
6300;SDS011;3183;51.010;6.898;2022-07-04T11:49:37;3.20;;;1.33;;
6300;SDS011;3183;51.010;6.898;2022-07-04T11:52:07;4.10;;;1.63;;
6300;SDS011;3183;51.010;6.898;2022-07-04T11:54:35;2.73;;;1.20;;
6300;SDS011;3183;51.010;6.898;2022-07-04T11:57:09;6.30;;;1.23;;
6300;SDS011;3183;51.010;6.898;2022-07-04T11:59:37;16.43;;;1.77;;
6300;SDS011;3183;51.010;6.898;2022-07-04T12:02:12;8.67;;;1.40;;
6300;SDS011;3183;51.010;6.898;2022-07-04T12:04:40;3.17;;;1.00;;
6300;SDS011;3183;51.010;6.898;2022-07-04T12:07:11;1.17;;;0.70;;
6300;SDS011;3183;51.010;6.898;2022-07-04T12:09:38;3.73;;;1.20;;
6300;SDS011;3183;51.010;6.898;2022-07-04T12:12:06;3.90;;;1.20;;
6300;SDS011;3183;51.010;6.898;2022-07-04T12:14:33;4.40;;;1.10;;
6300;SDS011;3183;51.010;6.898;2022-07-04T12:17:12;4.57;;;1.27;;
6300;SDS011;3183;51.010;6.898;2022-07-04T12:19:49;4.30;;;1.30;;
6300;SDS011;3183;51.010;6.898;2022-07-04T12:22:27;2.93;;;1.20;;
6300;SDS011;3183;51.010;6.898;2022-07-04T12:24:55;1.90;;;0.80;;
6300;SDS011;3183;51.010;6.898;2022-07-04T12:27:24;2.23;;;0.80;;
6300;SDS011;3183;51.010;6.898;2022-07-04T12:29:51;4.80;;;1.43;;
6300;SDS011;3183;51.010;6.898;2022-07-04T12:32:20;1.73;;;1.07;;
6300;SDS011;3183;51.010;6.898;2022-07-04T12:34:48;3.50;;;1.10;;
6300;SDS011;3183;51.010;6.898;2022-07-04T12:37:15;1.97;;;1.10;;
6300;SDS011;3183;51.010;6.898;2022-07-04T12:39:43;4.47;;;0.90;;
6300;SDS011;3183;51.010;6.898;2022-07-04T12:42:12;3.53;;;0.90;;
6300;SDS011;3183;51.010;6.898;2022-07-04T12:44:40;4.07;;;0.90;;
6300;SDS011;3183;51.010;6.898;2022-07-04T12:47:08;1.77;;;0.83;;
6300;SDS011;3183;51.010;6.898;2022-07-04T12:49:37;7.60;;;1.20;;
6300;SDS011;3183;51.010;6.898;2022-07-04T12:52:05;3.10;;;1.00;;
6300;SDS011;3183;51.010;6.898;2022-07-04T12:54:32;3.10;;;1.00;;
6300;SDS011;3183;51.010;6.898;2022-07-04T12:57:04;13.83;;;1.73;;
6300;SDS011;3183;51.010;6.898;2022-07-04T12:59:31;4.43;;;1.30;;
6300;SDS011;3183;51.010;6.898;2022-07-04T13:01:58;2.93;;;0.90;;
6300;SDS011;3183;51.010;6.898;2022-07-04T13:04:26;3.43;;;0.93;;
6300;SDS011;3183;51.010;6.898;2022-07-04T13:06:54;4.20;;;1.17;;
6300;SDS011;3183;51.010;6.898;2022-07-04T13:09:22;1.83;;;0.90;;
6300;SDS011;3183;51.010;6.898;2022-07-04T13:11:49;3.37;;;1.23;;
6300;SDS011;3183;51.010;6.898;2022-07-04T13:14:34;5.37;;;1.30;;
6300;SDS011;3183;51.010;6.898;2022-07-04T13:17:01;2.07;;;1.10;;
6300;SDS011;3183;51.010;6.898;2022-07-04T13:19:28;1.63;;;0.80;;
6300;SDS011;3183;51.010;6.898;2022-07-04T13:21:57;3.10;;;1.00;;
6300;SDS011;3183;51.010;6.898;2022-07-04T13:24:24;3.10;;;1.23;;
6300;SDS011;3183;51.010;6.898;2022-07-04T13:26:51;4.23;;;1.27;;
6300;SDS011;3183;51.010;6.898;2022-07-04T13:29:18;3.73;;;1.13;;
6300;SDS011;3183;51.010;6.898;2022-07-04T13:31:47;5.97;;;1.27;;
6300;SDS011;3183;51.010;6.898;2022-07-04T13:34:14;2.43;;;0.90;;
6300;SDS011;3183;51.010;6.898;2022-07-04T13:36:42;3.00;;;1.00;;
6300;SDS011;3183;51.010;6.898;2022-07-04T13:39:10;3.67;;;1.00;;
6300;SDS011;3183;51.010;6.898;2022-07-04T13:41:38;2.33;;;1.07;;
6300;SDS011;3183;51.010;6.898;2022-07-04T13:44:05;3.00;;;1.00;;
6300;SDS011;3183;51.010;6.898;2022-07-04T13:46:33;2.93;;;1.00;;
6300;SDS011;3183;51.010;6.898;2022-07-04T13:49:01;2.97;;;1.00;;
6300;SDS011;3183;51.010;6.898;2022-07-04T13:51:28;2.83;;;1.30;;
6300;SDS011;3183;51.010;6.898;2022-07-04T13:53:55;3.23;;;1.50;;
6300;SDS011;3183;51.010;6.898;2022-07-04T13:56:24;4.13;;;1.20;;
6300;SDS011;3183;51.010;6.898;2022-07-04T13:58:51;7.70;;;1.73;;
6300;SDS011;3183;51.010;6.898;2022-07-04T14:01:18;3.00;;;1.37;;
6300;SDS011;3183;51.010;6.898;2022-07-04T14:03:46;4.40;;;1.10;;
6300;SDS011;3183;51.010;6.898;2022-07-04T14:06:13;1.20;;;1.07;;
6300;SDS011;3183;51.010;6.898;2022-07-04T14:08:41;6.20;;;1.27;;
6300;SDS011;3183;51.010;6.898;2022-07-04T14:11:08;3.93;;;1.23;;
6300;SDS011;3183;51.010;6.898;2022-07-04T14:13:37;1.90;;;1.10;;
6300;SDS011;3183;51.010;6.898;2022-07-04T14:16:04;5.70;;;1.37;;
6300;SDS011;3183;51.010;6.898;2022-07-04T14:18:32;7.03;;;1.53;;
6300;SDS011;3183;51.010;6.898;2022-07-04T14:20:59;3.30;;;1.60;;
6300;SDS011;3183;51.010;6.898;2022-07-04T14:23:27;3.37;;;1.20;;
6300;SDS011;3183;51.010;6.898;2022-07-04T14:26:06;4.20;;;1.73;;
6300;SDS011;3183;51.010;6.898;2022-07-04T14:28:34;2.40;;;1.30;;
6300;SDS011;3183;51.010;6.898;2022-07-04T14:31:02;2.90;;;1.20;;
6300;SDS011;3183;51.010;6.898;2022-07-04T14:33:30;3.40;;;1.03;;
6300;SDS011;3183;51.010;6.898;2022-07-04T14:35:57;2.97;;;1.37;;
6300;SDS011;3183;51.010;6.898;2022-07-04T14:38:25;1.93;;;1.00;;
6300;SDS011;3183;51.010;6.898;2022-07-04T14:40:52;2.10;;;1.13;;
6300;SDS011;3183;51.010;6.898;2022-07-04T14:43:19;9.10;;;1.53;;
6300;SDS011;3183;51.010;6.898;2022-07-04T14:45:46;4.90;;;1.90;;
6300;SDS011;3183;51.010;6.898;2022-07-04T14:48:15;1.83;;;0.90;;
6300;SDS011;3183;51.010;6.898;2022-07-04T14:50:42;3.47;;;1.43;;
6300;SDS011;3183;51.010;6.898;2022-07-04T14:53:09;3.20;;;1.33;;
6300;SDS011;3183;51.010;6.898;2022-07-04T14:55:37;3.40;;;1.20;;
6300;SDS011;3183;51.010;6.898;2022-07-04T14:58:04;3.43;;;1.10;;
6300;SDS011;3183;51.010;6.898;2022-07-04T15:00:31;5.70;;;1.40;;
6300;SDS011;3183;51.010;6.898;2022-07-04T15:02:59;5.07;;;0.80;;
6300;SDS011;3183;51.010;6.898;2022-07-04T15:05:27;2.53;;;1.10;;
6300;SDS011;3183;51.010;6.898;2022-07-04T15:07:54;4.50;;;1.17;;
6300;SDS011;3183;51.010;6.898;2022-07-04T15:10:22;5.70;;;1.00;;
6300;SDS011;3183;51.010;6.898;2022-07-04T15:12:49;3.47;;;1.33;;
6300;SDS011;3183;51.010;6.898;2022-07-04T15:15:16;1.77;;;1.10;;
6300;SDS011;3183;51.010;6.898;2022-07-04T15:17:45;2.40;;;0.83;;
6300;SDS011;3183;51.010;6.898;2022-07-04T15:20:12;1.20;;;0.80;;
6300;SDS011;3183;51.010;6.898;2022-07-04T15:22:59;2.40;;;1.60;;
6300;SDS011;3183;51.010;6.898;2022-07-04T15:25:44;2.10;;;0.83;;
6300;SDS011;3183;51.010;6.898;2022-07-04T15:28:11;5.83;;;0.93;;
6300;SDS011;3183;51.010;6.898;2022-07-04T15:30:39;3.30;;;1.07;;
6300;SDS011;3183;51.010;6.898;2022-07-04T15:33:06;2.30;;;1.00;;
6300;SDS011;3183;51.010;6.898;2022-07-04T15:35:39;2.33;;;1.30;;
6300;SDS011;3183;51.010;6.898;2022-07-04T15:38:08;2.30;;;1.27;;